Time;durP1;ratioP1;P1;durP2;ratioP2;P2;SDS_P1;SDS_P2;PMS_P1;PMS_P2;Temp;Humidity;BMP_temperature;BMP_pressure;BME280_temperature;BME280_humidity;BME280_pressure;Samples;Min_cycle;Max_cycle;Signal;HPM_P1;HPM_P2
2021/12/29 00:02:04;;;;;;;12.40;4.15;;;7.50;99.90;;;;;;5055812;28;20040;-59
2021/12/29 00:04:48;;;;;;;12.20;4.55;;;7.50;99.90;;;;;;5055807;28;20028;-60
2021/12/29 00:07:32;;;;;;;9.03;4.27;;;7.50;99.90;;;;;;5041245;28;20032;-62
2021/12/29 00:10:18;;;;;;;8.52;4.28;;;7.50;99.90;;;;;;5051285;28;20067;-60
2021/12/29 00:13:04;;;;;;;8.60;3.33;;;7.50;99.90;;;;;;5048907;28;20044;-60
2021/12/29 00:15:56;;;;;;;7.78;3.50;;;7.40;99.90;;;;;;5049813;28;20028;-62
2021/12/29 00:18:40;;;;;;;8.48;3.95;;;7.40;99.90;;;;;;5051114;28;20876;-59
2021/12/29 00:21:26;;;;;;;12.32;3.92;;;7.50;99.90;;;;;;5053766;28;20056;-60
2021/12/29 00:24:10;;;;;;;9.77;3.85;;;7.40;99.90;;;;;;5054415;28;20108;-62
2021/12/29 00:26:54;;;;;;;9.32;3.75;;;7.40;99.90;;;;;;5055356;28;20040;-61
2021/12/29 00:29:38;;;;;;;7.10;3.72;;;7.30;99.90;;;;;;5055037;28;20036;-61
2021/12/29 00:32:22;;;;;;;9.20;3.70;;;7.30;99.90;;;;;;5054105;28;20115;-61
2021/12/29 00:35:08;;;;;;;13.00;4.28;;;7.30;99.90;;;;;;5052269;28;20083;-60
2021/12/29 00:37:52;;;;;;;10.10;4.18;;;7.20;99.90;;;;;;5055473;28;20028;-60
2021/12/29 00:40:38;;;;;;;9.83;4.07;;;7.30;99.90;;;;;;5052876;28;20036;-61
2021/12/29 00:43:22;;;;;;;11.43;4.05;;;7.20;99.90;;;;;;5055559;28;20087;-62
2021/12/29 00:46:08;;;;;;;9.30;3.78;;;7.10;99.90;;;;;;5053050;28;20087;-61
2021/12/29 00:48:52;;;;;;;8.40;4.35;;;7.10;99.90;;;;;;5054531;28;20586;-62
2021/12/29 00:51:36;;;;;;;8.20;3.60;;;7.10;99.90;;;;;;5054267;28;20039;-60
2021/12/29 00:54:21;;;;;;;7.32;3.83;;;7.00;99.90;;;;;;5051706;28;20071;-61
2021/12/29 00:57:05;;;;;;;10.23;4.07;;;7.00;99.90;;;;;;5052980;28;20098;-59
2021/12/29 00:59:49;;;;;;;11.43;3.78;;;7.00;99.90;;;;;;5054794;28;20040;-59
2021/12/29 01:02:34;;;;;;;8.02;3.28;;;6.90;99.90;;;;;;5045184;28;20067;-59
2021/12/29 01:05:19;;;;;;;8.03;3.57;;;7.00;99.90;;;;;;5048480;28;20036;-61
2021/12/29 01:08:04;;;;;;;7.28;3.58;;;6.90;99.90;;;;;;5049234;28;20086;-62
2021/12/29 01:10:48;;;;;;;;;;;6.90;99.90;;;;;;5038844;28;20057;-61
2021/12/29 01:13:34;;;;;;;10.48;4.00;;;6.90;99.90;;;;;;5055227;28;19915;-60
2021/12/29 01:19:25;;;;;;;9.35;3.40;;;6.80;99.90;;;;;;5041483;28;20039;-61
2021/12/29 01:22:10;;;;;;;6.78;3.30;;;6.80;99.90;;;;;;5054915;28;20028;-60
2021/12/29 01:24:54;;;;;;;6.50;3.15;;;6.80;99.90;;;;;;5054588;28;20392;-59
2021/12/29 01:27:38;;;;;;;6.18;3.40;;;6.90;99.90;;;;;;5054391;28;20039;-58
2021/12/29 01:30:23;;;;;;;7.93;3.25;;;6.80;99.90;;;;;;5055228;28;20091;-61
2021/12/29 01:33:07;;;;;;;6.97;3.13;;;6.80;99.90;;;;;;5054843;28;20039;-59
2021/12/29 01:35:51;;;;;;;7.22;3.42;;;6.80;99.90;;;;;;5054276;28;20130;-59
2021/12/29 01:38:35;;;;;;;8.05;3.25;;;6.80;99.90;;;;;;5054167;28;20100;-60
2021/12/29 01:41:29;;;;;;;7.60;3.13;;;6.80;99.90;;;;;;5054413;28;20044;-60
2021/12/29 01:44:14;;;;;;;6.65;3.00;;;6.80;99.90;;;;;;5054293;28;20036;-60
2021/12/29 01:47:01;;;;;;;7.18;3.10;;;6.70;99.90;;;;;;5054453;28;20519;-61
2021/12/29 01:49:46;;;;;;;7.43;4.03;;;6.70;99.90;;;;;;5053569;28;20040;-60
2021/12/29 01:52:36;;;;;;;;;;;6.70;99.90;;;;;;5035909;28;20124;-60
2021/12/29 01:55:25;;;;;;;8.35;3.58;;;6.60;99.90;;;;;;5041250;28;19915;-60
2021/12/29 01:58:09;;;;;;;7.13;3.38;;;6.50;99.90;;;;;;5055377;28;20163;-59
2021/12/29 02:00:54;;;;;;;7.55;3.50;;;6.40;99.90;;;;;;5053956;28;20526;-60
2021/12/29 02:03:39;;;;;;;8.40;3.70;;;6.50;99.90;;;;;;5054380;28;20036;-60
2021/12/29 02:06:23;;;;;;;6.20;3.67;;;6.40;99.90;;;;;;5053261;28;20031;-60
2021/12/29 02:09:08;;;;;;;7.28;3.10;;;6.40;99.90;;;;;;5054697;28;20044;-51
2021/12/29 02:11:53;;;;;;;7.20;3.13;;;6.40;99.90;;;;;;5053953;28;20035;-54
2021/12/29 02:14:37;;;;;;;10.25;3.85;;;6.40;99.90;;;;;;5053986;28;20068;-54
2021/12/29 02:17:21;;;;;;;9.00;3.20;;;6.40;99.90;;;;;;5052638;28;20454;-55
2021/12/29 02:20:11;;;;;;;6.50;3.60;;;6.50;99.90;;;;;;5051925;28;20055;-56
2021/12/29 02:23:13;;;;;;;6.88;3.92;;;6.50;99.90;;;;;;5052142;28;20043;-57
2021/12/29 02:25:59;;;;;;;7.05;3.78;;;6.50;99.90;;;;;;5038697;28;20568;-53
2021/12/29 02:28:42;;;;;;;;;;;6.40;99.90;;;;;;5054510;28;20068;-56
2021/12/29 02:31:27;;;;;;;9.55;4.47;;;6.30;99.90;;;;;;5053436;28;19966;-56
2021/12/29 02:34:15;;;;;;;7.85;3.97;;;6.30;99.90;;;;;;5052220;28;20068;-54
2021/12/29 02:37:02;;;;;;;10.45;4.38;;;6.20;99.90;;;;;;5053615;28;20080;-55
2021/12/29 02:39:49;;;;;;;7.82;3.38;;;6.20;99.90;;;;;;5052981;28;20031;-55
2021/12/29 02:42:39;;;;;;;8.38;3.33;;;6.10;99.90;;;;;;5053920;28;20500;-54
2021/12/29 02:45:26;;;;;;;6.50;3.80;;;6.10;99.90;;;;;;5053447;28;20086;-52
2021/12/29 02:48:10;;;;;;;10.20;3.80;;;6.10;99.90;;;;;;5053524;28;20606;-50
2021/12/29 02:50:56;;;;;;;9.38;4.32;;;6.10;99.90;;;;;;5038625;28;20060;-54
2021/12/29 02:53:40;;;;;;;12.80;4.03;;;5.80;99.90;;;;;;5053175;28;20094;-55
2021/12/29 02:56:26;;;;;;;11.15;3.97;;;5.80;99.90;;;;;;5053415;28;20139;-58
2021/12/29 02:59:11;;;;;;;9.20;4.35;;;5.80;99.90;;;;;;5054061;28;20059;-57
2021/12/29 03:01:58;;;;;;;11.50;5.38;;;5.80;99.90;;;;;;5054724;28;20075;-53
2021/12/29 03:04:42;;;;;;;9.93;4.72;;;5.90;99.90;;;;;;5056755;28;20048;-54
2021/12/29 03:07:26;;;;;;;10.57;4.88;;;5.90;99.90;;;;;;5036819;28;20389;-55
2021/12/29 03:10:10;;;;;;;11.23;4.90;;;6.00;99.90;;;;;;5038571;28;20113;-55
2021/12/29 03:12:55;;;;;;;12.02;4.78;;;5.90;99.90;;;;;;5056468;28;20271;-56
2021/12/29 03:15:39;;;;;;;9.30;4.85;;;5.80;99.90;;;;;;5057491;28;20047;-56
2021/12/29 03:18:23;;;;;;;10.05;5.40;;;5.80;99.90;;;;;;5057137;28;20090;-55
2021/12/29 03:21:09;;;;;;;9.25;4.93;;;5.60;99.90;;;;;;5058156;28;20056;-55
2021/12/29 03:23:53;;;;;;;;;;;5.70;99.90;;;;;;5038880;28;20500;-53
2021/12/29 03:26:37;;;;;;;11.13;5.40;;;5.80;99.90;;;;;;5050641;28;20003;-54
2021/12/29 03:29:21;;;;;;;13.32;5.53;;;5.90;99.90;;;;;;5040456;28;20036;-57
2021/12/29 03:32:08;;;;;;;11.07;5.22;;;6.00;99.90;;;;;;5040699;28;20109;-53
2021/12/29 03:34:53;;;;;;;8.43;5.07;;;5.90;99.90;;;;;;5053348;28;20036;-54
2021/12/29 03:37:37;;;;;;;15.02;5.95;;;5.90;99.90;;;;;;5056466;28;20409;-55
2021/12/29 03:40:22;;;;;;;12.15;5.38;;;5.80;99.90;;;;;;5054835;28;20435;-60
2021/12/29 03:43:08;;;;;;;9.32;5.68;;;5.90;99.90;;;;;;5057129;28;20075;-60
2021/12/29 03:45:54;;;;;;;9.90;5.15;;;6.10;99.90;;;;;;5056744;28;20083;-60
2021/12/29 03:48:40;;;;;;;11.48;4.97;;;6.10;99.90;;;;;;5057045;28;20108;-59
2021/12/29 03:51:25;;;;;;;13.82;5.45;;;6.10;99.90;;;;;;5057130;28;20119;-58
2021/12/29 03:54:09;;;;;;;12.23;5.22;;;6.10;99.90;;;;;;5056622;28;20407;-62
2021/12/29 03:56:53;;;;;;;9.32;4.68;;;6.10;99.90;;;;;;5056582;28;20044;-59
2021/12/29 03:59:37;;;;;;;13.53;5.40;;;6.00;99.90;;;;;;5056091;28;20032;-60
2021/12/29 04:02:22;;;;;;;11.50;5.35;;;6.00;99.90;;;;;;5055993;28;20052;-61
2021/12/29 04:05:08;;;;;;;9.07;4.90;;;6.10;99.90;;;;;;5056276;28;20067;-61
2021/12/29 04:07:53;;;;;;;13.85;4.50;;;6.10;99.90;;;;;;5056042;28;20059;-59
2021/12/29 04:10:38;;;;;;;15.93;5.20;;;6.20;99.90;;;;;;5055822;28;20447;-59
2021/12/29 04:13:22;;;;;;;11.73;4.53;;;6.30;99.90;;;;;;5054585;28;20039;-60
2021/12/29 04:16:12;;;;;;;12.23;4.88;;;6.30;99.90;;;;;;5055753;28;20048;-60
2021/12/29 04:19:08;;;;;;;12.27;4.82;;;6.30;99.90;;;;;;5056179;28;20048;-60
2021/12/29 04:21:52;;;;;;;12.38;4.97;;;6.30;99.90;;;;;;5054066;28;20054;-60
2021/12/29 04:24:36;;;;;;;10.70;4.87;;;6.30;99.90;;;;;;5055907;28;20170;-60
2021/12/29 04:27:23;;;;;;;14.00;5.38;;;6.30;99.90;;;;;;5055972;28;20032;-60
2021/12/29 04:30:08;;;;;;;10.70;4.47;;;6.40;99.90;;;;;;5056235;28;20044;-57
2021/12/29 04:32:53;;;;;;;12.35;4.53;;;6.40;99.90;;;;;;5055254;28;20047;-60
2021/12/29 04:35:37;;;;;;;13.23;4.78;;;6.30;99.90;;;;;;5055893;28;20043;-60
2021/12/29 04:38:24;;;;;;;9.55;4.78;;;6.30;99.90;;;;;;5054551;28;20063;-60
2021/12/29 04:41:08;;;;;;;11.23;4.50;;;6.30;99.90;;;;;;5054883;28;20047;-60
2021/12/29 04:43:52;;;;;;;8.82;4.63;;;6.20;99.90;;;;;;5055353;28;20036;-60
2021/12/29 04:46:44;;;;;;;15.30;4.88;;;6.30;99.90;;;;;;5056027;28;20556;-59
2021/12/29 04:49:39;;;;;;;11.60;5.32;;;6.30;99.90;;;;;;5055085;28;20070;-57
2021/12/29 04:52:23;;;;;;;10.93;5.00;;;6.30;99.90;;;;;;5055420;28;20075;-60
2021/12/29 04:55:08;;;;;;;16.40;5.30;;;6.40;99.90;;;;;;5055306;28;20082;-59
2021/12/29 04:57:53;;;;;;;;;;;6.40;99.90;;;;;;5054381;28;20032;-59
2021/12/29 05:00:38;;;;;;;14.82;5.35;;;6.40;99.90;;;;;;5053082;28;20330;-60
2021/12/29 05:03:22;;;;;;;13.20;4.93;;;6.20;99.90;;;;;;5053303;28;20055;-62
2021/12/29 05:08:50;;;;;;;16.60;5.18;;;6.40;99.90;;;;;;5053463;28;20329;-60
2021/12/29 05:11:34;;;;;;;11.43;4.93;;;6.40;99.90;;;;;;5052936;28;20109;-57
2021/12/29 05:14:19;;;;;;;8.00;4.83;;;6.30;99.90;;;;;;5052833;28;20036;-59
2021/12/29 05:17:03;;;;;;;9.40;5.10;;;6.40;99.90;;;;;;5033174;28;20433;-60
2021/12/29 05:19:47;;;;;;;7.95;4.70;;;6.30;99.90;;;;;;5036647;28;20412;-60
2021/12/29 05:22:32;;;;;;;10.23;4.78;;;6.40;99.90;;;;;;5055187;28;20044;-58
2021/12/29 05:25:16;;;;;;;9.90;5.20;;;6.40;99.90;;;;;;5053827;28;20079;-60
2021/12/29 05:28:00;;;;;;;9.03;5.07;;;6.30;99.90;;;;;;5045971;28;20512;-60
2021/12/29 05:30:46;;;;;;;8.20;4.75;;;6.30;99.90;;;;;;5055010;28;20164;-60
2021/12/29 05:33:30;;;;;;;11.32;5.00;;;6.30;99.90;;;;;;5054175;28;20563;-60
2021/12/29 05:36:15;;;;;;;11.40;5.03;;;6.40;99.90;;;;;;5055255;28;20044;-59
2021/12/29 05:38:59;;;;;;;6.97;4.63;;;6.40;99.90;;;;;;5054301;28;20518;-59
2021/12/29 05:41:43;;;;;;;11.90;5.23;;;6.40;99.90;;;;;;5053931;28;20086;-59
2021/12/29 05:44:27;;;;;;;10.48;5.18;;;6.40;99.90;;;;;;5055063;28;20400;-60
2021/12/29 05:47:11;;;;;;;9.38;5.18;;;6.40;99.90;;;;;;5054331;28;20028;-60
2021/12/29 05:49:55;;;;;;;7.70;5.35;;;6.50;99.90;;;;;;5054106;28;20044;-60
2021/12/29 05:52:39;;;;;;;12.57;6.03;;;6.40;99.90;;;;;;5054032;28;20074;-59
2021/12/29 05:55:24;;;;;;;11.30;6.72;;;6.40;99.90;;;;;;5054370;28;20040;-62
2021/12/29 05:58:09;;;;;;;15.40;5.80;;;6.60;99.90;;;;;;5054618;28;20044;-58
2021/12/29 06:00:54;;;;;;;10.50;5.63;;;6.40;99.90;;;;;;5054312;28;20078;-57
2021/12/29 06:03:39;;;;;;;10.13;5.35;;;6.40;99.90;;;;;;5053869;28;20052;-58
2021/12/29 06:06:23;;;;;;;10.45;5.75;;;6.40;99.90;;;;;;5054130;28;20040;-61
2021/12/29 06:09:07;;;;;;;9.15;5.68;;;6.30;99.90;;;;;;5053603;28;20040;-60
2021/12/29 06:11:52;;;;;;;11.32;6.38;;;6.40;99.90;;;;;;5053804;28;20407;-60
2021/12/29 06:14:36;;;;;;;12.90;6.18;;;6.50;99.90;;;;;;5053082;28;20140;-59
2021/12/29 06:17:20;;;;;;;11.27;6.80;;;6.50;99.90;;;;;;5053847;28;20067;-59
2021/12/29 06:20:07;;;;;;;11.65;6.85;;;6.60;99.90;;;;;;5053257;28;20040;-61
2021/12/29 06:22:51;;;;;;;11.23;6.13;;;6.60;99.90;;;;;;5053491;28;20086;-59
2021/12/29 06:25:35;;;;;;;15.43;6.20;;;6.60;99.90;;;;;;5053816;28;20040;-60
2021/12/29 06:28:20;;;;;;;11.63;7.20;;;6.60;99.90;;;;;;5052819;28;20098;-62
2021/12/29 06:31:05;;;;;;;13.32;7.82;;;6.60;99.90;;;;;;5053682;28;20040;-58
2021/12/29 06:33:49;;;;;;;16.63;7.50;;;6.60;99.90;;;;;;5052805;28;20107;-63
2021/12/29 06:36:33;;;;;;;14.30;8.98;;;6.60;99.90;;;;;;5056644;28;20036;-59
2021/12/29 06:39:17;;;;;;;12.07;8.57;;;6.60;99.90;;;;;;5058529;28;20040;-61
2021/12/29 06:42:03;;;;;;;13.00;8.10;;;6.60;99.90;;;;;;5056634;28;20782;-60
2021/12/29 06:44:47;;;;;;;14.88;6.75;;;6.60;99.90;;;;;;5058834;28;20093;-59
2021/12/29 06:47:32;;;;;;;13.43;6.95;;;6.70;99.90;;;;;;5059187;28;20036;-59
2021/12/29 06:50:16;;;;;;;11.13;6.25;;;6.60;99.90;;;;;;5058264;28;20047;-59
2021/12/29 06:53:00;;;;;;;11.95;5.82;;;6.60;99.90;;;;;;5057670;28;20067;-60
2021/12/29 06:55:44;;;;;;;13.20;7.35;;;6.60;99.90;;;;;;5059165;28;20040;-60
2021/12/29 06:58:28;;;;;;;11.15;6.95;;;6.60;99.90;;;;;;5058935;28;20392;-59
2021/12/29 07:01:13;;;;;;;10.48;7.10;;;6.60;99.90;;;;;;5056119;28;20079;-60
2021/12/29 07:03:58;;;;;;;11.55;6.82;;;6.60;99.90;;;;;;5057145;28;20113;-59
2021/12/29 07:06:42;;;;;;;9.43;6.63;;;6.50;99.90;;;;;;5057805;28;20032;-60
2021/12/29 07:09:26;;;;;;;15.23;7.70;;;6.30;99.90;;;;;;5056742;28;20060;-61
2021/12/29 07:12:10;;;;;;;14.10;7.55;;;6.30;99.90;;;;;;5057235;28;20107;-59
2021/12/29 07:14:54;;;;;;;16.23;8.35;;;6.20;99.90;;;;;;5057032;28;20055;-62
2021/12/29 07:17:38;;;;;;;15.82;8.27;;;6.30;99.90;;;;;;5055494;28;20095;-60
2021/12/29 07:20:23;;;;;;;13.40;8.13;;;6.30;99.90;;;;;;5056352;28;20072;-58
2021/12/29 07:23:06;;;;;;;13.23;7.47;;;6.40;99.90;;;;;;5056391;28;20283;-60
2021/12/29 07:25:51;;;;;;;16.50;8.32;;;6.40;99.90;;;;;;5056729;28;20134;-58
2021/12/29 07:28:35;;;;;;;13.40;7.17;;;6.40;99.90;;;;;;5052414;28;20040;-60
2021/12/29 07:31:20;;;;;;;;;;;6.40;99.90;;;;;;5038434;28;20082;-60
2021/12/29 07:34:04;;;;;;;12.40;7.75;;;6.40;99.90;;;;;;5051781;28;19915;-60
2021/12/29 07:36:49;;;;;;;13.50;9.23;;;6.50;99.90;;;;;;5057642;28;20404;-60
2021/12/29 07:39:33;;;;;;;17.10;9.30;;;6.50;99.90;;;;;;5056971;28;20091;-61
2021/12/29 07:42:17;;;;;;;15.10;8.07;;;6.60;99.90;;;;;;5056458;28;20099;-59
2021/12/29 07:45:03;;;;;;;13.00;7.93;;;6.60;99.90;;;;;;5056599;28;20171;-59
2021/12/29 07:47:49;;;;;;;16.15;8.70;;;6.70;99.90;;;;;;5054496;28;20032;-60
2021/12/29 07:50:33;;;;;;;16.90;8.10;;;6.70;99.90;;;;;;5046600;28;20117;-62
2021/12/29 07:53:17;;;;;;;15.93;8.20;;;6.60;99.90;;;;;;5048546;28;20044;-61
2021/12/29 07:56:01;;;;;;;13.80;8.18;;;6.60;99.90;;;;;;5055852;28;20111;-60
2021/12/29 07:58:45;;;;;;;15.68;9.45;;;6.60;99.90;;;;;;5055915;28;20495;-60
2021/12/29 08:01:29;;;;;;;20.35;8.68;;;6.60;99.90;;;;;;5056267;28;20035;-60
2021/12/29 08:04:15;;;;;;;13.68;8.40;;;6.60;99.90;;;;;;5054011;28;20602;-61
2021/12/29 08:06:59;;;;;;;13.60;7.43;;;6.50;99.90;;;;;;5056768;28;20393;-56
2021/12/29 08:09:43;;;;;;;14.55;7.65;;;6.70;99.90;;;;;;5053127;28;20044;-61
2021/12/29 08:12:27;;;;;;;11.80;7.97;;;6.70;99.90;;;;;;5046318;28;20141;-61
2021/12/29 08:15:11;;;;;;;13.55;7.97;;;6.60;99.90;;;;;;5048775;28;20098;-61
2021/12/29 08:17:57;;;;;;;12.63;8.43;;;6.70;99.90;;;;;;5055744;28;20098;-60
2021/12/29 08:20:41;;;;;;;;;;;6.50;99.90;;;;;;5037329;28;20049;-61
2021/12/29 08:23:25;;;;;;;12.10;7.65;;;6.70;99.90;;;;;;5053323;28;20289;-60
2021/12/29 08:26:09;;;;;;;12.88;7.55;;;6.70;99.90;;;;;;5056091;28;20032;-60
2021/12/29 08:28:57;;;;;;;9.95;7.30;;;6.70;99.90;;;;;;5053887;28;20040;-59
2021/12/29 08:31:41;;;;;;;12.25;7.05;;;6.90;99.90;;;;;;5052722;28;20024;-61
2021/12/29 08:34:25;;;;;;;9.07;6.32;;;7.00;99.90;;;;;;5053173;28;20361;-60
2021/12/29 08:37:10;;;;;;;9.27;6.80;;;7.10;99.90;;;;;;5053537;28;20072;-60
2021/12/29 08:39:55;;;;;;;8.50;6.10;;;7.10;99.90;;;;;;5055403;28;20083;-59
2021/12/29 08:42:39;;;;;;;11.80;7.00;;;7.10;99.90;;;;;;5050539;28;20404;-60
2021/12/29 08:45:26;;;;;;;12.65;6.50;;;7.20;99.90;;;;;;5054007;28;20087;-62
2021/12/29 08:48:11;;;;;;;9.13;6.47;;;7.20;99.90;;;;;;5052436;28;20404;-58
2021/12/29 08:50:59;;;;;;;10.18;7.07;;;7.30;99.90;;;;;;5047919;28;20111;-62
2021/12/29 08:53:43;;;;;;;10.30;6.97;;;7.30;99.90;;;;;;5035820;28;20397;-61
2021/12/29 08:56:27;;;;;;;8.38;6.07;;;7.40;99.90;;;;;;5053906;28;20083;-59
2021/12/29 08:59:13;;;;;;;10.27;6.50;;;7.40;99.90;;;;;;5054561;28;20071;-60
2021/12/29 09:01:57;;;;;;;7.70;6.90;;;7.40;99.90;;;;;;5044048;28;20056;-60
2021/12/29 09:04:41;;;;;;;8.45;6.40;;;7.50;99.90;;;;;;5056149;28;20085;-60
2021/12/29 09:07:25;;;;;;;9.13;6.35;;;7.30;99.90;;;;;;5055285;28;20507;-60
2021/12/29 09:10:11;;;;;;;8.55;6.45;;;7.30;99.90;;;;;;5056280;28;20124;-57
2021/12/29 09:12:55;;;;;;;9.77;7.07;;;7.20;99.90;;;;;;5056261;28;20167;-62
2021/12/29 09:15:40;;;;;;;11.63;7.30;;;7.10;99.90;;;;;;5055875;28;20533;-63
2021/12/29 09:18:25;;;;;;;12.13;6.78;;;7.10;99.90;;;;;;5054303;28;20076;-58
2021/12/29 09:21:14;;;;;;;8.40;6.75;;;7.10;99.90;;;;;;5049293;28;20148;-63
2021/12/29 09:23:58;;;;;;;8.65;6.90;;;7.10;99.90;;;;;;5050316;28;20117;-55
2021/12/29 09:26:42;;;;;;;9.27;7.10;;;7.10;99.90;;;;;;5054070;28;20510;-60
2021/12/29 09:29:26;;;;;;;10.60;6.95;;;7.10;99.90;;;;;;5032471;28;20128;-61
2021/12/29 09:32:11;;;;;;;9.23;7.63;;;7.10;99.90;;;;;;5034505;28;20065;-56
2021/12/29 09:34:59;;;;;;;;;;;7.10;99.90;;;;;;5054928;28;20435;-61
2021/12/29 09:37:44;;;;;;;12.07;7.65;;;7.10;99.90;;;;;;5052448;28;19924;-57
2021/12/29 09:40:28;;;;;;;9.65;7.53;;;7.10;99.90;;;;;;5052839;28;20076;-61
2021/12/29 09:43:14;;;;;;;12.13;8.65;;;7.10;99.90;;;;;;5053989;28;20094;-57
2021/12/29 09:45:59;;;;;;;11.73;8.95;;;7.00;99.90;;;;;;5053695;28;20028;-61
2021/12/29 09:48:43;;;;;;;10.65;8.02;;;7.10;99.90;;;;;;5053522;28;20104;-60
2021/12/29 09:51:28;;;;;;;14.57;10.30;;;7.20;99.90;;;;;;5052172;28;20126;-61
2021/12/29 09:54:12;;;;;;;;;;;7.20;99.90;;;;;;5053838;28;20052;-61
2021/12/29 09:56:56;;;;;;;12.10;8.88;;;7.10;99.90;;;;;;5053080;28;19916;-60
2021/12/29 09:59:40;;;;;;;16.30;9.97;;;7.40;99.90;;;;;;5052223;28;20036;-60
2021/12/29 10:02:25;;;;;;;12.52;10.20;;;7.40;99.90;;;;;;5052668;28;20519;-64
2021/12/29 10:05:09;;;;;;;14.75;10.63;;;7.40;99.90;;;;;;5053749;28;20393;-61
2021/12/29 10:08:03;;;;;;;13.18;9.73;;;7.50;99.90;;;;;;5033853;28;20045;-59
2021/12/29 10:10:50;;;;;;;17.67;11.32;;;7.40;99.90;;;;;;5037770;28;20035;-59
2021/12/29 10:13:38;;;;;;;13.27;10.40;;;7.40;99.90;;;;;;5052987;28;20069;-59
2021/12/29 10:16:25;;;;;;;13.80;10.27;;;7.40;99.90;;;;;;5052958;28;20040;-55
2021/12/29 10:19:12;;;;;;;13.88;10.20;;;7.40;99.90;;;;;;5052851;28;20052;-59
2021/12/29 10:21:57;;;;;;;13.90;10.90;;;7.40;99.90;;;;;;5037478;28;20041;-60
2021/12/29 10:24:41;;;;;;;16.00;10.63;;;7.50;99.90;;;;;;5052880;28;20039;-61
2021/12/29 10:27:29;;;;;;;16.13;10.73;;;7.50;99.90;;;;;;5052902;28;20622;-61
2021/12/29 10:30:29;;;;;;;12.23;9.60;;;7.50;99.90;;;;;;5052838;28;20667;-61
2021/12/29 10:33:13;;;;;;;13.27;10.30;;;7.60;99.90;;;;;;5051732;28;20079;-61
2021/12/29 10:36:08;;;;;;;13.33;10.23;;;7.50;99.90;;;;;;5052616;28;20106;-60
2021/12/29 10:39:11;;;;;;;14.38;10.77;;;7.60;99.90;;;;;;5053123;28;20036;-60
2021/12/29 10:41:58;;;;;;;17.90;10.75;;;7.70;99.90;;;;;;5053467;28;20035;-62
2021/12/29 10:44:46;;;;;;;13.07;10.07;;;7.80;99.90;;;;;;5053210;28;20519;-60
2021/12/29 10:47:33;;;;;;;13.90;9.88;;;7.80;99.90;;;;;;5052690;28;20519;-59
2021/12/29 10:50:17;;;;;;;16.23;11.27;;;7.70;99.90;;;;;;5051724;28;20128;-58
2021/12/29 10:53:01;;;;;;;12.10;9.43;;;7.80;99.90;;;;;;5052256;28;20028;-61
2021/12/29 10:55:45;;;;;;;13.07;9.77;;;7.90;99.90;;;;;;5052738;28;20063;-62
2021/12/29 10:58:33;;;;;;;12.60;10.25;;;8.00;99.90;;;;;;5052335;28;20060;-61
2021/12/29 11:01:17;;;;;;;14.30;10.63;;;8.00;99.90;;;;;;5050398;28;20076;-60
2021/12/29 11:04:03;;;;;;;12.67;10.00;;;8.10;99.90;;;;;;5047071;28;20059;-60
2021/12/29 11:06:49;;;;;;;12.27;10.00;;;8.10;99.90;;;;;;5050888;28;20663;-59
2021/12/29 11:09:36;;;;;;;14.57;10.80;;;8.20;99.90;;;;;;5050464;28;20059;-57
2021/12/29 11:12:23;;;;;;;12.32;10.07;;;8.00;99.90;;;;;;5050785;28;20132;-61
2021/12/29 11:15:24;;;;;;;11.43;9.35;;;8.10;99.90;;;;;;5050876;28;20396;-62
2021/12/29 11:18:12;;;;;;;12.30;10.18;;;8.30;99.90;;;;;;5052290;28;20028;-61
2021/12/29 11:20:58;;;;;;;12.88;9.63;;;8.30;99.90;;;;;;5051539;28;20079;-64
2021/12/29 11:23:42;;;;;;;13.73;10.10;;;8.40;99.90;;;;;;5054130;28;20514;-62
2021/12/29 11:26:31;;;;;;;12.57;10.60;;;8.40;99.90;;;;;;5055571;28;20036;-62
2021/12/29 11:29:19;;;;;;;15.38;9.77;;;8.40;99.90;;;;;;5055406;28;20527;-63
2021/12/29 11:32:10;;;;;;;13.82;10.20;;;8.40;99.90;;;;;;5040310;28;20443;-60
2021/12/29 11:35:18;;;;;;;13.73;9.57;;;8.60;99.90;;;;;;5052382;28;20032;-59
2021/12/29 11:38:02;;;;;;;12.32;8.70;;;8.70;99.90;;;;;;5056103;28;20036;-62
2021/12/29 11:40:50;;;;;;;11.97;9.60;;;8.70;99.90;;;;;;5064050;28;20043;-59
2021/12/29 11:43:34;;;;;;;14.77;10.07;;;8.80;99.90;;;;;;5056553;28;20463;-60
2021/12/29 11:46:23;;;;;;;12.23;10.40;;;8.90;99.90;;;;;;5054665;28;20035;-59
2021/12/29 11:49:08;;;;;;;10.98;9.35;;;8.90;99.90;;;;;;5064525;28;20177;-62
2021/12/29 11:52:03;;;;;;;15.60;11.13;;;8.90;99.90;;;;;;5064691;28;20051;-59
2021/12/29 11:55:14;;;;;;;13.18;10.18;;;9.00;99.90;;;;;;5080397;28;20262;-61
2021/12/29 11:58:10;;;;;;;13.82;10.10;;;9.00;99.90;;;;;;5053257;28;20032;-58
2021/12/29 12:01:05;;;;;;;12.90;10.02;;;9.00;99.90;;;;;;5053352;28;20515;-61
2021/12/29 12:03:55;;;;;;;12.93;9.75;;;9.10;99.90;;;;;;5038138;28;20079;-62
2021/12/29 12:06:40;;;;;;;11.43;9.48;;;8.90;99.90;;;;;;5051081;28;20028;-60
2021/12/29 12:09:25;;;;;;;10.30;8.55;;;8.80;99.90;;;;;;5052022;28;20096;-60
2021/12/29 12:12:10;;;;;;;;;;;9.00;99.90;;;;;;5053007;28;20083;-61
2021/12/29 12:14:54;;;;;;;11.50;8.73;;;9.20;99.90;;;;;;5053503;28;19916;-62
2021/12/29 12:17:39;;;;;;;9.90;8.27;;;9.30;99.90;;;;;;5049506;28;20052;-62
2021/12/29 12:20:23;;;;;;;8.90;7.38;;;9.30;99.90;;;;;;5051226;28;20052;-60
2021/12/29 12:23:08;;;;;;;9.23;5.93;;;9.20;99.90;;;;;;5052488;28;20116;-60
2021/12/29 12:25:55;;;;;;;6.65;4.90;;;9.20;99.90;;;;;;5053422;28;20040;-62
2021/12/29 12:28:47;;;;;;;14.15;4.43;;;9.10;99.90;;;;;;5036184;28;20036;-60
2021/12/29 12:31:32;;;;;;;7.40;6.70;;;9.20;99.90;;;;;;5054113;28;20044;-61
2021/12/29 12:34:22;;;;;;;5.72;4.00;;;9.20;99.90;;;;;;5050618;28;20175;-61
2021/12/29 12:37:21;;;;;;;4.57;3.83;;;9.30;99.90;;;;;;5053699;28;20078;-59
2021/12/29 12:40:22;;;;;;;4.07;3.42;;;9.20;99.90;;;;;;5054011;28;20071;-62
2021/12/29 12:43:13;;;;;;;5.75;3.55;;;9.20;99.90;;;;;;5053354;28;20028;-60
2021/12/29 12:45:58;;;;;;;3.63;3.10;;;9.20;99.90;;;;;;5054400;28;20090;-61
2021/12/29 12:48:42;;;;;;;5.03;2.90;;;9.20;99.90;;;;;;5054716;28;20570;-60
2021/12/29 12:51:26;;;;;;;3.92;2.92;;;9.10;99.90;;;;;;5030951;28;20168;-59
2021/12/29 12:54:21;;;;;;;3.20;2.60;;;9.30;99.90;;;;;;5053836;28;20056;-60
2021/12/29 12:57:06;;;;;;;5.25;2.67;;;9.40;99.90;;;;;;5037820;28;20071;-62
2021/12/29 12:59:53;;;;;;;4.00;2.63;;;9.60;99.90;;;;;;5054301;28;20032;-60
2021/12/29 13:02:42;;;;;;;2.85;2.50;;;9.70;99.90;;;;;;5052398;28;20079;-61
2021/12/29 13:05:28;;;;;;;5.63;2.67;;;9.80;99.90;;;;;;5039348;28;20027;-62
2021/12/29 13:08:23;;;;;;;2.90;2.40;;;9.70;99.90;;;;;;5053283;28;20087;-60
2021/12/29 13:11:11;;;;;;;4.38;3.40;;;9.60;99.90;;;;;;5043119;28;20396;-61
2021/12/29 13:13:56;;;;;;;5.18;4.43;;;9.40;99.90;;;;;;5053947;28;20060;-63
2021/12/29 13:16:40;;;;;;;6.30;5.22;;;9.40;99.90;;;;;;5054073;28;20059;-60
2021/12/29 13:19:25;;;;;;;5.57;4.93;;;9.30;99.90;;;;;;5053958;28;20052;-60
2021/12/29 13:22:09;;;;;;;6.93;5.85;;;9.10;99.90;;;;;;5038347;28;20100;-58
2021/12/29 13:25:04;;;;;;;8.70;6.10;;;9.10;99.90;;;;;;5053584;28;20125;-58
2021/12/29 13:28:02;;;;;;;7.55;6.07;;;9.10;99.90;;;;;;5043223;28;20080;-58
2021/12/29 13:30:56;;;;;;;7.28;6.10;;;9.00;99.90;;;;;;5052913;28;20040;-58
2021/12/29 13:33:48;;;;;;;7.30;6.10;;;9.00;99.90;;;;;;5047917;28;20067;-59
2021/12/29 13:36:32;;;;;;;6.95;5.90;;;8.90;99.90;;;;;;5051373;28;20048;-60
2021/12/29 13:39:16;;;;;;;9.50;6.07;;;9.00;99.90;;;;;;5053724;28;20078;-61
2021/12/29 13:42:00;;;;;;;7.32;5.78;;;9.00;99.90;;;;;;5053636;28;20086;-58
2021/12/29 13:44:44;;;;;;;8.60;6.40;;;8.80;99.90;;;;;;5053157;28;20052;-57
2021/12/29 13:47:28;;;;;;;6.80;5.80;;;8.90;99.90;;;;;;5052769;28;20041;-60
2021/12/29 13:50:13;;;;;;;7.43;5.80;;;8.90;99.90;;;;;;5052116;28;20044;-57
2021/12/29 13:53:07;;;;;;;7.70;6.55;;;8.80;99.90;;;;;;5052700;28;20062;-61
2021/12/29 13:55:53;;;;;;;8.40;6.45;;;8.90;99.90;;;;;;5033554;28;20037;-59
2021/12/29 13:58:38;;;;;;;8.32;6.40;;;8.90;99.90;;;;;;5035152;28;20097;-58
2021/12/29 14:01:22;;;;;;;8.00;6.88;;;8.90;99.90;;;;;;5050982;28;20028;-60
2021/12/29 14:04:09;;;;;;;7.38;5.70;;;8.90;99.90;;;;;;5052073;28;20032;-62
2021/12/29 14:07:00;;;;;;;8.00;6.22;;;8.90;99.90;;;;;;5053197;28;20031;-59
2021/12/29 14:09:46;;;;;;;7.82;5.50;;;8.80;99.90;;;;;;5051480;28;20031;-60
2021/12/29 14:12:35;;;;;;;6.32;5.68;;;9.00;99.90;;;;;;5052789;28;20657;-59
2021/12/29 14:15:23;;;;;;;7.65;5.03;;;9.00;99.90;;;;;;5053296;28;20090;-60
2021/12/29 14:18:25;;;;;;;7.18;5.15;;;9.00;99.90;;;;;;5052270;28;20116;-63
2021/12/29 14:21:16;;;;;;;6.88;5.78;;;9.10;99.90;;;;;;5053410;28;20036;-57
2021/12/29 14:24:05;;;;;;;7.25;5.60;;;9.10;99.90;;;;;;5046742;28;20693;-60
2021/12/29 14:26:58;;;;;;;8.45;6.70;;;9.10;99.90;;;;;;5053899;28;20089;-62
2021/12/29 14:29:43;;;;;;;13.07;9.52;;;9.10;99.90;;;;;;5053069;28;20124;-60
2021/12/29 14:32:27;;;;;;;13.05;8.60;;;9.10;99.90;;;;;;5051000;28;20052;-60
2021/12/29 14:35:11;;;;;;;10.50;7.65;;;9.10;99.90;;;;;;5043009;28;20179;-61
2021/12/29 14:37:57;;;;;;;9.35;7.25;;;9.00;99.90;;;;;;5050986;28;20040;-59